Time,TemperatureF,DewpointF,PressureIn,WindDirection,WindDirectionDegrees,WindSpeedMPH,WindSpeedGustMPH,Humidity,HourlyPrecipIn,Conditions,Clouds,dailyrainin,SoftwareType,DateUTC
2013-05-19 00:00:00,76.6,68.5,29.94,SSE,158,2.5,9.8,76,0.00,,SKC,0.00,VWS V14.01,2013-05-19 05:00:00,
2013-05-19 00:01:00,34.2,0.0,30.03,ESE,112,0.0,0.0,0,0.00,,SKC,0.00,VWS V14.01,2013-05-19 05:01:00,
2013-05-19 00:06:00,69.3,65.2,30.03,ESE,112,0.0,0.0,87,0.00,,SKC,0.00,VWS V14.01,2013-05-19 05:06:00,
2013-05-19 00:11:00,69.3,65.2,30.00,SSE,158,0.0,0.0,87,0.00,,SKC,0.00,VWS V14.01,2013-05-19 05:11:00,
2013-05-19 00:16:00,69.4,65.4,30.00,SW,225,0.0,0.0,87,0.00,,SKC,0.00,VWS V14.01,2013-05-19 05:16:00,
2013-05-19 00:21:00,69.8,65.8,30.00,SSE,158,0.0,0.0,87,0.00,,SKC,0.00,VWS V14.01,2013-05-19 05:21:00,
2013-05-19 00:26:00,70.2,66.1,30.00,SSE,158,0.0,0.0,87,0.00,,SKC,0.00,VWS V14.01,2013-05-19 05:26:00,
2013-05-19 00:31:00,70.3,66.3,30.00,ESE,112,0.0,0.0,87,0.00,,SKC,0.00,VWS V14.01,2013-05-19 05:31:00,
2013-05-19 00:36:00,70.3,66.3,30.00,ESE,112,0.0,0.0,87,0.00,,SKC,0.00,VWS V14.01,2013-05-19 05:36:00,
2013-05-19 00:41:00,70.5,66.5,30.00,ESE,112,0.0,0.0,87,0.00,,SKC,0.00,VWS V14.01,2013-05-19 05:41:00,
2013-05-19 00:46:00,70.5,66.5,30.00,ESE,112,0.0,0.0,87,0.00,,SKC,0.00,VWS V14.01,2013-05-19 05:46:00,
2013-05-19 00:51:00,70.7,66.7,30.00,SSE,158,0.0,0.0,87,0.00,,SKC,0.00,VWS V14.01,2013-05-19 05:51:00,
2013-05-19 00:56:00,70.5,66.1,29.97,SSE,158,0.0,0.0,86,0.00,,SKC,0.00,VWS V14.01,2013-05-19 05:56:00,
2013-05-19 01:01:00,70.7,66.3,29.97,SSE,158,0.0,0.0,86,0.00,,SKC,0.00,VWS V14.01,2013-05-19 06:01:00,
2013-05-19 01:06:00,70.5,66.1,29.97,SSE,158,0.0,0.0,86,0.00,,SKC,0.00,VWS V14.01,2013-05-19 06:06:00,
2013-05-19 01:11:00,70.5,66.1,30.00,East,90,0.0,0.0,86,0.00,,SKC,0.00,VWS V14.01,2013-05-19 06:11:00,
2013-05-19 01:16:00,70.5,66.1,30.00,East,90,0.0,0.0,86,0.00,,SKC,0.00,VWS V14.01,2013-05-19 06:16:00,
2013-05-19 01:21:00,70.2,66.1,30.00,East,90,0.0,0.0,87,0.00,,SKC,0.00,VWS V14.01,2013-05-19 06:21:00,
2013-05-19 01:26:00,70.2,66.1,30.00,East,90,0.0,0.0,87,0.00,,SKC,0.00,VWS V14.01,2013-05-19 06:26:00,
2013-05-19 01:31:00,70.2,66.1,30.00,East,90,0.0,0.0,87,0.00,,SKC,0.00,VWS V14.01,2013-05-19 06:31:00,
2013-05-19 01:36:00,70.2,66.1,30.00,SE,135,0.0,0.0,87,0.00,,SKC,0.00,VWS V14.01,2013-05-19 06:36:00,
2013-05-19 01:41:00,70.2,66.1,29.97,WSW,248,0.0,0.0,87,0.00,,SKC,0.00,VWS V14.01,2013-05-19 06:41:00,
2013-05-19 01:46:00,70.5,66.5,29.97,WSW,248,0.0,0.0,87,0.00,,SKC,0.00,VWS V14.01,2013-05-19 06:46:00,
2013-05-19 01:52:00,70.7,66.7,29.97,SSE,158,0.0,0.0,87,0.00,,SKC,0.00,VWS V14.01,2013-05-19 06:52:00,
2013-05-19 01:57:00,70.7,66.7,30.03,SSE,158,0.0,0.0,87,0.00,,SKC,0.00,VWS V14.01,2013-05-19 06:57:00,
2013-05-19 02:02:00,70.7,66.7,30.03,SSE,158,0.0,0.0,87,0.00,,SKC,0.00,VWS V14.01,2013-05-19 07:02:00,
2013-05-19 02:07:00,70.7,66.7,30.03,SSE,158,0.0,0.0,87,0.00,,SKC,0.00,VWS V14.01,2013-05-19 07:07:00,
2013-05-19 02:12:00,70.7,66.7,29.97,SSE,158,0.0,0.0,87,0.00,,SKC,0.00,VWS V14.01,2013-05-19 07:12:00,
2013-05-19 02:17:00,70.9,66.8,29.97,SSE,158,0.0,0.0,87,0.00,,SKC,0.00,VWS V14.01,2013-05-19 07:17:00,
2013-05-19 02:22:00,71.1,67.0,29.97,SSE,158,0.0,0.0,87,0.00,,SKC,0.00,VWS V14.01,2013-05-19 07:22:00,
2013-05-19 02:27:00,71.1,67.0,29.97,SSE,158,0.0,0.0,87,0.00,,SKC,0.00,VWS V14.01,2013-05-19 07:27:00,
2013-05-19 02:32:00,71.1,67.0,29.97,SSE,158,0.0,0.0,87,0.00,,SKC,0.00,VWS V14.01,2013-05-19 07:32:00,
2013-05-19 02:37:00,71.1,67.0,29.97,South,180,0.0,0.0,87,0.00,,SKC,0.00,VWS V14.01,2013-05-19 07:37:00,
2013-05-19 02:42:00,71.1,67.0,30.00,SW,225,0.0,0.0,87,0.00,,SKC,0.00,VWS V14.01,2013-05-19 07:42:00,
2013-05-19 02:47:00,71.1,67.0,30.00,ESE,112,0.0,0.0,87,0.00,,SKC,0.00,VWS V14.01,2013-05-19 07:47:00,
2013-05-19 02:52:00,70.9,66.8,30.00,ESE,112,0.0,0.0,87,0.00,,SKC,0.00,VWS V14.01,2013-05-19 07:52:00,
2013-05-19 02:57:00,70.7,66.7,30.00,ESE,112,0.9,3.6,87,0.00,,SKC,0.00,VWS V14.01,2013-05-19 07:57:00,
2013-05-19 03:02:00,70.3,66.3,30.00,SSE,158,3.1,12.5,87,0.00,,SKC,0.00,VWS V14.01,2013-05-19 08:02:00,
2013-05-19 03:07:00,70.2,66.1,30.00,ESE,112,2.9,11.6,87,0.00,,SKC,0.00,VWS V14.01,2013-05-19 08:07:00,
2013-05-19 03:12:00,70.0,65.9,29.97,SSW,202,0.0,0.0,87,0.00,,SKC,0.00,VWS V14.01,2013-05-19 08:12:00,
2013-05-19 03:17:00,70.0,65.9,29.97,SE,135,0.0,0.0,87,0.00,,SKC,0.00,VWS V14.01,2013-05-19 08:17:00,
2013-05-19 03:22:00,69.8,66.1,29.97,SE,135,0.0,0.0,88,0.00,,SKC,0.00,VWS V14.01,2013-05-19 08:22:00,
2013-05-19 03:27:00,69.8,66.1,30.00,SSE,158,0.0,0.0,88,0.00,,SKC,0.00,VWS V14.01,2013-05-19 08:27:00,
2013-05-19 03:32:00,69.8,66.1,30.00,SSE,158,0.0,0.0,88,0.00,,SKC,0.00,VWS V14.01,2013-05-19 08:32:00,
2013-05-19 03:37:00,69.8,66.1,30.00,SSE,158,1.1,4.5,88,0.00,,SKC,0.00,VWS V14.01,2013-05-19 08:37:00,
2013-05-19 03:42:00,70.0,66.3,30.00,SSE,158,0.0,0.0,88,0.00,,SKC,0.00,VWS V14.01,2013-05-19 08:42:00,
2013-05-19 03:47:00,70.0,66.3,30.00,SSE,158,0.0,0.0,88,0.00,,SKC,0.00,VWS V14.01,2013-05-19 08:47:00,
2013-05-19 03:52:00,70.2,66.8,30.00,SSE,158,0.0,0.0,89,0.00,,SKC,0.00,VWS V14.01,2013-05-19 08:52:00,
2013-05-19 03:57:00,70.2,66.8,30.00,SSE,158,0.0,0.0,89,0.00,,SKC,0.00,VWS V14.01,2013-05-19 08:57:00,
2013-05-19 04:02:00,70.0,66.6,30.00,SSE,158,0.0,0.0,89,0.00,,SKC,0.00,VWS V14.01,2013-05-19 09:02:00,
2013-05-19 04:07:00,70.2,66.8,30.00,SSE,158,0.0,0.0,89,0.00,,SKC,0.00,VWS V14.01,2013-05-19 09:07:00,
2013-05-19 04:12:00,70.2,66.8,29.97,SSE,158,0.0,0.0,89,0.00,,SKC,0.00,VWS V14.01,2013-05-19 09:12:00,
2013-05-19 04:17:00,70.2,66.8,29.97,SSE,158,0.0,0.0,89,0.00,,SKC,0.00,VWS V14.01,2013-05-19 09:17:00,
2013-05-19 04:22:00,70.2,66.8,29.97,SSE,158,0.0,0.0,89,0.00,,SKC,0.00,VWS V14.01,2013-05-19 09:22:00,
2013-05-19 04:27:00,70.2,66.8,30.00,SSE,158,0.9,3.6,89,0.00,,SKC,0.00,VWS V14.01,2013-05-19 09:27:00,
2013-05-19 04:32:00,70.2,66.8,30.00,SSE,158,0.0,0.0,89,0.00,,SKC,0.00,VWS V14.01,2013-05-19 09:32:00,
2013-05-19 04:37:00,70.2,66.8,30.00,SSE,158,1.3,5.4,89,0.00,,SKC,0.00,VWS V14.01,2013-05-19 09:37:00,
2013-05-19 04:42:00,70.2,66.8,30.03,SSE,158,0.0,0.0,89,0.00,,SKC,0.00,VWS V14.01,2013-05-19 09:42:00,
2013-05-19 04:47:00,70.2,66.8,30.03,ESE,112,0.0,0.0,89,0.00,,SKC,0.00,VWS V14.01,2013-05-19 09:47:00,
2013-05-19 04:52:00,70.2,66.8,30.03,SSE,158,0.0,0.0,89,0.00,,SKC,0.00,VWS V14.01,2013-05-19 09:52:00,
2013-05-19 04:57:00,70.0,66.6,30.00,SE,135,0.0,0.0,89,0.00,,SKC,0.00,VWS V14.01,2013-05-19 09:57:00,
2013-05-19 05:02:00,70.0,66.6,30.00,SSE,158,0.0,0.0,89,0.00,,SKC,0.00,VWS V14.01,2013-05-19 10:02:00,
2013-05-19 05:07:00,70.0,66.6,30.00,SE,135,0.0,0.0,89,0.00,,SKC,0.00,VWS V14.01,2013-05-19 10:07:00,
2013-05-19 05:12:00,70.0,66.6,29.97,SE,135,0.0,0.0,89,0.00,,SKC,0.00,VWS V14.01,2013-05-19 10:12:00,
2013-05-19 05:17:00,69.8,66.4,29.97,SE,135,0.0,0.0,89,0.00,,SKC,0.00,VWS V14.01,2013-05-19 10:17:00,
2013-05-19 05:22:00,69.4,66.4,29.97,SSE,158,0.0,0.0,90,0.00,,SKC,0.00,VWS V14.01,2013-05-19 10:22:00,
2013-05-19 05:27:00,69.3,66.2,29.94,ESE,112,0.0,0.0,90,0.00,,SKC,0.00,VWS V14.01,2013-05-19 10:27:00,
2013-05-19 05:32:00,69.1,66.0,29.94,ESE,112,0.0,0.0,90,0.00,,SKC,0.00,VWS V14.01,2013-05-19 10:32:00,
2013-05-19 05:37:00,68.7,65.7,29.94,ESE,112,0.0,0.0,90,0.00,,SKC,0.00,VWS V14.01,2013-05-19 10:37:00,
2013-05-19 05:42:00,68.7,65.7,29.97,SE,135,0.0,0.0,90,0.00,,SKC,0.00,VWS V14.01,2013-05-19 10:42:00,
2013-05-19 05:47:00,68.7,66.0,29.97,SE,135,0.0,0.0,91,0.00,,SKC,0.00,VWS V14.01,2013-05-19 10:47:00,
2013-05-19 05:52:00,68.7,66.0,29.97,SE,135,0.0,0.0,91,0.00,,SKC,0.00,VWS V14.01,2013-05-19 10:52:00,
2013-05-19 05:57:00,68.5,65.8,29.97,SE,135,0.0,0.0,91,0.00,,SKC,0.00,VWS V14.01,2013-05-19 10:57:00,
2013-05-19 06:02:00,68.5,65.8,29.97,SE,135,0.0,0.0,91,0.00,,SKC,0.00,VWS V14.01,2013-05-19 11:02:00,
2013-05-19 06:07:00,68.9,66.2,29.97,SE,135,0.0,0.0,91,0.00,,SKC,0.00,VWS V14.01,2013-05-19 11:07:00,
2013-05-19 06:12:00,69.3,66.8,30.00,SE,135,0.0,0.0,92,0.00,,SKC,0.00,VWS V14.01,2013-05-19 11:12:00,
2013-05-19 06:17:00,69.4,66.7,30.00,SE,135,0.0,0.0,91,0.00,,SKC,0.00,VWS V14.01,2013-05-19 11:17:00,
2013-05-19 06:22:00,69.6,67.2,30.00,SSE,158,0.0,0.0,92,0.00,,SKC,0.00,VWS V14.01,2013-05-19 11:22:00,
2013-05-19 06:27:00,69.6,67.2,30.00,SSE,158,0.0,0.0,92,0.00,,SKC,0.00,VWS V14.01,2013-05-19 11:27:00,
2013-05-19 06:32:00,69.8,67.1,30.00,SSE,158,2.0,8.1,91,0.00,,SKC,0.00,VWS V14.01,2013-05-19 11:32:00,
2013-05-19 06:37:00,69.8,67.1,30.00,SSE,158,0.0,0.0,91,0.00,,SKC,0.00,VWS V14.01,2013-05-19 11:37:00,
2013-05-19 06:42:00,70.0,67.2,29.97,SSE,158,1.1,4.5,91,0.00,,SKC,0.00,VWS V14.01,2013-05-19 11:42:00,
2013-05-19 06:47:00,70.2,67.4,29.97,SSE,158,0.0,0.0,91,0.00,,SKC,0.00,VWS V14.01,2013-05-19 11:47:00,
2013-05-19 06:52:00,70.3,67.6,29.97,SSE,158,1.1,4.5,91,0.00,,SKC,0.00,VWS V14.01,2013-05-19 11:52:00,
2013-05-19 06:57:00,70.5,67.8,29.97,SW,225,0.0,0.0,91,0.00,,SKC,0.00,VWS V14.01,2013-05-19 11:57:00,
2013-05-19 07:02:00,70.7,67.9,29.97,SW,225,0.0,0.0,91,0.00,,SKC,0.00,VWS V14.01,2013-05-19 12:02:00,
2013-05-19 07:07:00,70.9,68.1,29.97,SSE,158,0.0,0.0,91,0.00,,SKC,0.00,VWS V14.01,2013-05-19 12:07:00,
2013-05-19 07:12:00,71.1,68.0,29.94,SSE,158,0.0,0.0,90,0.00,,SKC,0.00,VWS V14.01,2013-05-19 12:12:00,
2013-05-19 07:17:00,71.2,68.2,29.94,SE,135,0.0,0.0,90,0.00,,SKC,0.00,VWS V14.01,2013-05-19 12:17:00,
2013-05-19 07:22:00,71.4,68.3,29.94,South,180,0.0,0.0,90,0.00,,SKC,0.00,VWS V14.01,2013-05-19 12:22:00,
2013-05-19 07:27:00,71.6,68.5,30.00,SSE,158,0.0,0.0,90,0.00,,SKC,0.00,VWS V14.01,2013-05-19 12:27:00,
2013-05-19 07:32:00,71.6,68.5,30.00,SSE,158,0.0,0.0,90,0.00,,SKC,0.00,VWS V14.01,2013-05-19 12:32:00,
2013-05-19 07:37:00,71.8,68.4,30.00,SSE,158,2.0,8.1,89,0.00,,SKC,0.00,VWS V14.01,2013-05-19 12:37:00,
2013-05-19 07:42:00,72.1,68.7,29.97,SSE,158,1.1,4.5,89,0.00,,SKC,0.00,VWS V14.01,2013-05-19 12:42:00,
2013-05-19 07:47:00,72.5,69.1,29.97,SSE,158,1.6,6.3,89,0.00,,SKC,0.00,VWS V14.01,2013-05-19 12:47:00,
2013-05-19 07:52:00,72.9,69.4,29.97,SE,135,0.0,0.0,89,0.00,,SKC,0.00,VWS V14.01,2013-05-19 12:52:00,
2013-05-19 07:57:00,73.2,69.8,30.00,SE,135,2.9,11.6,89,0.00,,SKC,0.00,VWS V14.01,2013-05-19 12:57:00,
2013-05-19 08:02:00,73.6,69.8,30.00,West,270,0.0,0.0,88,0.00,,SKC,0.00,VWS V14.01,2013-05-19 13:02:00,
2013-05-19 08:07:00,74.1,70.3,30.00,WSW,248,0.0,0.0,88,0.00,,SKC,0.00,VWS V14.01,2013-05-19 13:07:00,
2013-05-19 08:12:00,74.7,70.9,30.00,SE,135,0.0,0.0,88,0.00,,SKC,0.00,VWS V14.01,2013-05-19 13:12:00,
2013-05-19 08:17:00,75.2,71.1,30.00,SE,135,2.0,8.1,87,0.00,,SKC,0.00,VWS V14.01,2013-05-19 13:17:00,
2013-05-19 08:22:00,75.4,70.6,30.00,South,180,4.0,16.1,85,0.00,,SKC,0.00,VWS V14.01,2013-05-19 13:22:00,
2013-05-19 08:27:00,75.6,71.1,30.00,SW,225,0.0,0.0,86,0.00,,SKC,0.00,VWS V14.01,2013-05-19 13:27:00,
2013-05-19 08:32:00,75.9,71.4,30.00,SSE,158,0.0,0.0,86,0.00,,SKC,0.00,VWS V14.01,2013-05-19 13:32:00,
2013-05-19 08:37:00,76.3,71.8,30.00,SSE,158,0.0,0.0,86,0.00,,SKC,0.00,VWS V14.01,2013-05-19 13:37:00,
2013-05-19 08:42:00,76.6,72.1,29.97,SSE,158,2.7,10.7,86,0.00,,SKC,0.00,VWS V14.01,2013-05-19 13:42:00,
2013-05-19 08:47:00,76.8,72.0,29.97,SSE,158,1.6,6.3,85,0.00,,SKC,0.00,VWS V14.01,2013-05-19 13:47:00,
2013-05-19 08:52:00,77.0,72.2,29.97,SSW,202,2.0,8.1,85,0.00,,SKC,0.00,VWS V14.01,2013-05-19 13:52:00,
2013-05-19 08:57:00,77.2,72.0,30.00,SSE,158,2.7,10.7,84,0.00,,SKC,0.00,VWS V14.01,2013-05-19 13:57:00,
2013-05-19 09:02:00,77.5,72.3,30.00,SSW,202,0.9,3.6,84,0.00,,SKC,0.00,VWS V14.01,2013-05-19 14:02:00,
2013-05-19 09:07:00,77.7,72.2,30.00,SSW,202,1.6,6.3,83,0.00,,SKC,0.00,VWS V14.01,2013-05-19 14:07:00,
2013-05-19 09:12:00,78.4,72.5,30.00,SSE,158,0.9,3.6,82,0.00,,SKC,0.00,VWS V14.01,2013-05-19 14:12:00,
2013-05-19 09:17:00,78.6,72.3,30.00,South,180,0.9,3.6,81,0.00,,SKC,0.00,VWS V14.01,2013-05-19 14:17:00,
2013-05-19 09:22:00,79.2,72.5,30.00,SE,135,2.7,10.7,80,0.00,,SKC,0.00,VWS V14.01,2013-05-19 14:22:00,
2013-05-19 09:27:00,79.2,72.5,30.00,SSW,202,0.0,0.0,80,0.00,,SKC,0.00,VWS V14.01,2013-05-19 14:27:00,
2013-05-19 09:32:00,80.1,73.0,30.00,SSW,202,0.9,3.6,79,0.00,,SKC,0.00,VWS V14.01,2013-05-19 14:32:00,
2013-05-19 09:37:00,79.7,72.2,30.00,WSW,248,2.0,8.1,78,0.00,,SKC,0.00,VWS V14.01,2013-05-19 14:37:00,
2013-05-19 09:42:00,79.7,72.2,30.00,SW,225,1.1,4.5,78,0.00,,SKC,0.00,VWS V14.01,2013-05-19 14:42:00,
2013-05-19 09:47:00,79.5,72.1,30.00,SE,135,1.3,5.4,78,0.00,,SKC,0.00,VWS V14.01,2013-05-19 14:47:00,
2013-05-19 09:52:00,79.9,72.8,30.00,WSW,248,0.0,0.0,79,0.00,,SKC,0.00,VWS V14.01,2013-05-19 14:52:00,
2013-05-19 09:57:00,80.4,73.3,30.00,WSW,248,1.6,6.3,79,0.00,,SKC,0.00,VWS V14.01,2013-05-19 14:57:00,
2013-05-19 10:02:00,80.6,73.1,30.00,SW,225,1.3,5.4,78,0.00,,SKC,0.00,VWS V14.01,2013-05-19 15:02:00,
2013-05-19 10:07:00,81.1,73.6,30.00,SW,225,0.0,0.0,78,0.00,,SKC,0.00,VWS V14.01,2013-05-19 15:07:00,
2013-05-19 10:12:00,81.9,74.3,30.00,ENE,68,0.0,0.0,78,0.00,,SKC,0.00,VWS V14.01,2013-05-19 15:12:00,
2013-05-19 10:17:00,82.8,74.8,30.00,ESE,112,2.2,9.0,77,0.00,,SKC,0.00,VWS V14.01,2013-05-19 15:17:00,
2013-05-19 10:22:00,83.1,74.8,30.00,West,270,1.3,5.4,76,0.00,,SKC,0.00,VWS V14.01,2013-05-19 15:22:00,
2013-05-19 10:27:00,83.1,74.0,30.00,NW,315,2.0,8.1,74,0.00,,SKC,0.00,VWS V14.01,2013-05-19 15:27:00,
2013-05-19 10:32:00,84.0,75.6,30.00,SE,135,1.3,5.4,76,0.00,,SKC,0.00,VWS V14.01,2013-05-19 15:32:00,
2013-05-19 10:37:00,84.6,75.0,30.00,SE,135,1.3,5.4,73,0.00,,SKC,0.00,VWS V14.01,2013-05-19 15:37:00,
2013-05-19 10:42:00,84.9,75.7,30.00,SE,135,1.3,5.4,74,0.00,,SKC,0.00,VWS V14.01,2013-05-19 15:42:00,
2013-05-19 10:47:00,84.9,75.7,30.00,ESE,112,2.9,11.6,74,0.00,,SKC,0.00,VWS V14.01,2013-05-19 15:47:00,
2013-05-19 10:52:00,87.1,74.8,30.00,SE,135,3.6,14.3,67,0.00,,SKC,0.00,VWS V14.01,2013-05-19 15:52:00,
2013-05-19 10:57:00,88.0,75.7,30.00,SW,225,0.0,0.0,67,0.00,,SKC,0.00,VWS V14.01,2013-05-19 15:57:00,
2013-05-19 11:02:00,88.7,76.3,30.00,SSE,158,2.9,11.6,67,0.00,,SKC,0.00,VWS V14.01,2013-05-19 16:02:00,
2013-05-19 11:07:00,90.3,77.4,30.00,East,90,0.0,0.0,66,0.00,,SKC,0.00,VWS V14.01,2013-05-19 16:07:00,
2013-05-19 11:12:00,91.2,77.8,29.97,WSW,248,0.0,0.0,65,0.00,,SKC,0.00,VWS V14.01,2013-05-19 16:12:00,
2013-05-19 11:17:00,91.6,76.7,29.97,South,180,1.6,6.3,62,0.00,,SKC,0.00,VWS V14.01,2013-05-19 16:17:00,
2013-05-19 11:22:00,91.6,76.2,29.97,SSE,158,2.0,8.1,61,0.00,,SKC,0.00,VWS V14.01,2013-05-19 16:22:00,
2013-05-19 11:27:00,92.8,77.4,29.97,ENE,68,0.0,0.0,61,0.00,,SKC,0.00,VWS V14.01,2013-05-19 16:27:00,
2013-05-19 11:32:00,93.4,76.9,29.97,ENE,68,0.0,0.0,59,0.00,,SKC,0.00,VWS V14.01,2013-05-19 16:32:00,
2013-05-19 11:37:00,93.0,76.6,29.97,NE,45,0.0,0.0,59,0.00,,SKC,0.00,VWS V14.01,2013-05-19 16:37:00,
2013-05-19 11:42:00,93.4,77.4,29.97,SE,135,0.0,0.0,60,0.00,,SKC,0.00,VWS V14.01,2013-05-19 16:42:00,
2013-05-19 11:47:00,93.9,77.9,29.97,SSE,158,4.0,16.1,60,0.00,,SKC,0.00,VWS V14.01,2013-05-19 16:47:00,
2013-05-19 11:52:00,93.7,76.2,29.97,East,90,0.9,3.6,57,0.00,,SKC,0.00,VWS V14.01,2013-05-19 16:52:00,
2013-05-19 11:57:00,92.8,75.4,29.97,East,90,2.9,11.6,57,0.00,,SKC,0.00,VWS V14.01,2013-05-19 16:57:00,
2013-05-19 12:02:00,93.0,74.5,29.97,East,90,1.1,4.5,55,0.00,,SKC,0.00,VWS V14.01,2013-05-19 17:02:00,
2013-05-19 12:07:00,93.4,75.3,29.97,SSE,158,1.3,5.4,56,0.00,,SKC,0.00,VWS V14.01,2013-05-19 17:07:00,
2013-05-19 12:12:00,93.6,75.5,29.94,SSE,158,2.0,8.1,56,0.00,,SKC,0.00,VWS V14.01,2013-05-19 17:12:00,
2013-05-19 12:17:00,93.4,75.9,29.94,ENE,68,1.1,4.5,57,0.00,,SKC,0.00,VWS V14.01,2013-05-19 17:17:00,
2013-05-19 12:22:00,94.3,76.7,29.94,SSW,202,0.0,0.0,57,0.00,,SKC,0.00,VWS V14.01,2013-05-19 17:22:00,
2013-05-19 12:27:00,94.1,76.0,29.91,SSE,158,2.2,9.0,56,0.00,,SKC,0.00,VWS V14.01,2013-05-19 17:27:00,
2013-05-19 12:32:00,93.6,76.1,29.91,SSE,158,1.1,4.5,57,0.00,,SKC,0.00,VWS V14.01,2013-05-19 17:32:00,
2013-05-19 12:37:00,93.6,75.0,29.91,South,180,0.0,0.0,55,0.00,,SKC,0.00,VWS V14.01,2013-05-19 17:37:00,
2013-05-19 12:42:00,93.7,75.1,29.94,SE,135,1.3,5.4,55,0.00,,SKC,0.00,VWS V14.01,2013-05-19 17:42:00,
2013-05-19 12:47:00,93.6,75.0,29.94,South,180,1.1,4.5,55,0.00,,SKC,0.00,VWS V14.01,2013-05-19 17:47:00,
2013-05-19 12:52:00,93.2,75.2,29.94,South,180,2.0,8.1,56,0.00,,SKC,0.00,VWS V14.01,2013-05-19 17:52:00,
2013-05-19 12:57:00,93.6,76.1,29.94,ENE,68,0.0,0.0,57,0.00,,SKC,0.00,VWS V14.01,2013-05-19 17:57:00,
2013-05-19 13:02:00,93.7,75.1,29.94,South,180,1.6,6.3,55,0.00,,SKC,0.00,VWS V14.01,2013-05-19 18:02:00,
2013-05-19 13:07:00,92.8,74.3,29.94,SSW,202,1.1,4.5,55,0.00,,SKC,0.00,VWS V14.01,2013-05-19 18:07:00,
2013-05-19 13:12:00,92.7,75.7,29.94,SSW,202,1.1,4.5,58,0.00,,SKC,0.00,VWS V14.01,2013-05-19 18:12:00,
2013-05-19 13:17:00,92.1,74.7,29.94,SSE,158,2.0,8.1,57,0.00,,SKC,0.00,VWS V14.01,2013-05-19 18:17:00,
2013-05-19 13:22:00,91.8,74.9,29.94,ESE,112,0.0,0.0,58,0.00,,SKC,0.00,VWS V14.01,2013-05-19 18:22:00,
2013-05-19 13:27:00,91.2,74.4,29.91,SSW,202,2.7,10.7,58,0.00,,SKC,0.00,VWS V14.01,2013-05-19 18:27:00,
2013-05-19 13:32:00,91.0,75.2,29.91,ESE,112,0.9,3.6,60,0.00,,SKC,0.00,VWS V14.01,2013-05-19 18:32:00,
2013-05-19 13:37:00,92.5,76.1,29.91,East,90,0.0,0.0,59,0.00,,SKC,0.00,VWS V14.01,2013-05-19 18:37:00,
2013-05-19 13:42:00,91.2,74.9,29.91,East,90,0.0,0.0,59,0.00,,SKC,0.00,VWS V14.01,2013-05-19 18:42:00,
2013-05-19 13:47:00,91.4,74.0,29.91,East,90,0.0,0.0,57,0.00,,SKC,0.00,VWS V14.01,2013-05-19 18:47:00,
2013-05-19 13:52:00,91.4,75.1,29.91,East,90,0.0,0.0,59,0.00,,SKC,0.00,VWS V14.01,2013-05-19 18:52:00,
2013-05-19 13:57:00,90.9,75.1,29.91,SW,225,0.0,0.0,60,0.00,,SKC,0.00,VWS V14.01,2013-05-19 18:57:00,
2013-05-19 14:02:00,90.0,73.2,29.91,East,90,2.7,10.7,58,0.00,,SKC,0.00,VWS V14.01,2013-05-19 19:02:00,
2013-05-19 14:07:00,89.6,72.9,29.91,WSW,248,2.0,8.1,58,0.00,,SKC,0.00,VWS V14.01,2013-05-19 19:07:00,
2013-05-19 14:12:00,89.8,73.6,29.91,SE,135,2.9,11.6,59,0.00,,SKC,0.00,VWS V14.01,2013-05-19 19:12:00,
2013-05-19 14:17:00,90.5,74.7,29.91,SE,135,1.3,5.4,60,0.00,,SKC,0.00,VWS V14.01,2013-05-19 19:17:00,
2013-05-19 14:22:00,90.9,75.1,29.91,South,180,0.0,0.0,60,0.00,,SKC,0.00,VWS V14.01,2013-05-19 19:22:00,
2013-05-19 14:27:00,91.6,74.7,29.88,ESE,112,1.3,5.4,58,0.00,,SKC,0.00,VWS V14.01,2013-05-19 19:27:00,
2013-05-19 14:32:00,92.7,75.7,29.88,South,180,2.0,8.1,58,0.00,,SKC,0.00,VWS V14.01,2013-05-19 19:32:00,
2013-05-19 14:37:00,92.8,74.3,29.88,ESE,112,3.1,12.5,55,0.00,,SKC,0.00,VWS V14.01,2013-05-19 19:37:00,
2013-05-19 14:42:00,93.9,76.4,29.88,SE,135,0.0,0.0,57,0.00,,SKC,0.00,VWS V14.01,2013-05-19 19:42:00,
2013-05-19 14:47:00,94.3,75.6,29.88,ESE,112,2.0,8.1,55,0.00,,SKC,0.00,VWS V14.01,2013-05-19 19:47:00,
2013-05-19 14:52:00,93.9,75.3,29.88,East,90,1.1,4.5,55,0.00,,SKC,0.00,VWS V14.01,2013-05-19 19:52:00,
2013-05-19 14:57:00,93.4,73.7,29.88,SW,225,4.3,17.0,53,0.00,,SKC,0.00,VWS V14.01,2013-05-19 19:57:00,
2013-05-19 15:02:00,92.7,73.0,29.88,SSW,202,0.9,3.6,53,0.00,,SKC,0.00,VWS V14.01,2013-05-19 20:02:00,
2013-05-19 15:07:00,92.5,72.3,29.88,SSW,202,1.1,4.5,52,0.00,,SKC,0.00,VWS V14.01,2013-05-19 20:07:00,
2013-05-19 15:12:00,92.5,72.9,29.88,SSE,158,4.3,17.0,53,0.00,,SKC,0.00,VWS V14.01,2013-05-19 20:12:00,
2013-05-19 15:17:00,91.9,71.8,29.88,SSE,158,4.0,16.1,52,0.00,,SKC,0.00,VWS V14.01,2013-05-19 20:17:00,
2013-05-19 15:22:00,92.5,72.3,29.88,SSE,158,2.9,11.6,52,0.00,,SKC,0.00,VWS V14.01,2013-05-19 20:22:00,
2013-05-19 15:27:00,92.5,71.2,29.88,South,180,3.4,13.4,50,0.00,,SKC,0.00,VWS V14.01,2013-05-19 20:27:00,
2013-05-19 15:32:00,93.2,74.1,29.88,SW,225,2.7,10.7,54,0.00,,SKC,0.00,VWS V14.01,2013-05-19 20:32:00,
2013-05-19 15:37:00,93.7,73.5,29.88,South,180,2.7,10.7,52,0.00,,SKC,0.00,VWS V14.01,2013-05-19 20:37:00,
2013-05-19 15:42:00,93.7,72.9,29.88,SE,135,1.6,6.3,51,0.00,,SKC,0.00,VWS V14.01,2013-05-19 20:42:00,
2013-05-19 15:47:00,92.8,72.1,29.88,South,180,6.3,25.1,51,0.00,,SKC,0.00,VWS V14.01,2013-05-19 20:47:00,
2013-05-19 15:52:00,91.9,72.9,29.88,SSW,202,1.3,5.4,54,0.00,,SKC,0.00,VWS V14.01,2013-05-19 20:52:00,
2013-05-19 15:57:00,91.6,72.6,29.85,South,180,0.0,0.0,54,0.00,,SKC,0.00,VWS V14.01,2013-05-19 20:57:00,
2013-05-19 16:02:00,91.9,72.9,29.85,South,180,2.5,9.8,54,0.00,,SKC,0.00,VWS V14.01,2013-05-19 21:02:00,
2013-05-19 16:07:00,91.8,73.3,29.85,South,180,1.3,5.4,55,0.00,,SKC,0.00,VWS V14.01,2013-05-19 21:07:00,
2013-05-19 16:12:00,92.3,73.8,29.85,SSW,202,2.0,8.1,55,0.00,,SKC,0.00,VWS V14.01,2013-05-19 21:12:00,
2013-05-19 16:17:00,92.8,74.3,29.85,East,90,2.0,8.1,55,0.00,,SKC,0.00,VWS V14.01,2013-05-19 21:17:00,
2013-05-19 16:22:00,93.6,73.3,29.85,SSE,158,2.2,9.0,52,0.00,,SKC,0.00,VWS V14.01,2013-05-19 21:22:00,
2013-05-19 16:27:00,91.9,72.4,29.85,SSE,158,2.2,9.0,53,0.00,,SKC,0.00,VWS V14.01,2013-05-19 21:27:00,
2013-05-19 16:32:00,92.1,72.5,29.85,WSW,248,2.0,8.1,53,0.00,,SKC,0.00,VWS V14.01,2013-05-19 21:32:00,
2013-05-19 16:37:00,92.1,73.1,29.85,SSW,202,2.7,10.7,54,0.00,,SKC,0.00,VWS V14.01,2013-05-19 21:37:00,
2013-05-19 16:42:00,92.3,71.6,29.82,South,180,2.5,9.8,51,0.00,,SKC,0.00,VWS V14.01,2013-05-19 21:42:00,
2013-05-19 16:47:00,92.1,72.0,29.82,South,180,7.2,28.6,52,0.00,,SKC,0.00,VWS V14.01,2013-05-19 21:47:00,
2013-05-19 16:52:00,92.5,72.3,29.82,West,270,4.7,18.8,52,0.00,,SKC,0.00,VWS V14.01,2013-05-19 21:52:00,
2013-05-19 16:57:00,92.5,72.3,29.82,SE,135,3.8,15.2,52,0.00,,SKC,0.00,VWS V14.01,2013-05-19 21:57:00,
2013-05-19 17:02:00,92.1,73.1,29.82,South,180,3.1,12.5,54,0.00,,SKC,0.00,VWS V14.01,2013-05-19 22:02:00,
2013-05-19 17:07:00,92.1,72.5,29.82,SW,225,1.6,6.3,53,0.00,,SKC,0.00,VWS V14.01,2013-05-19 22:07:00,
2013-05-19 17:12:00,91.2,71.7,29.82,SW,225,1.6,6.3,53,0.00,,SKC,0.00,VWS V14.01,2013-05-19 22:12:00,
2013-05-19 17:17:00,91.4,71.9,29.82,SW,225,1.6,6.3,53,0.00,,SKC,0.00,VWS V14.01,2013-05-19 22:17:00,
2013-05-19 17:22:00,91.0,72.1,29.82,SW,225,1.6,6.3,54,0.00,,SKC,0.00,VWS V14.01,2013-05-19 22:22:00,
2013-05-19 17:27:00,91.6,71.5,29.82,SSE,158,3.1,12.5,52,0.00,,SKC,0.00,VWS V14.01,2013-05-19 22:27:00,
2013-05-19 17:32:00,91.8,72.8,29.82,South,180,2.2,9.0,54,0.00,,SKC,0.00,VWS V14.01,2013-05-19 22:32:00,
2013-05-19 17:37:00,91.9,72.9,29.82,South,180,2.2,9.0,54,0.00,,SKC,0.00,VWS V14.01,2013-05-19 22:37:00,
2013-05-19 17:42:00,91.4,70.7,29.82,South,180,3.8,15.2,51,0.00,,SKC,0.00,VWS V14.01,2013-05-19 22:42:00,
2013-05-19 17:47:00,91.0,71.0,29.82,South,180,6.5,26.0,52,0.00,,SKC,0.00,VWS V14.01,2013-05-19 22:47:00,
2013-05-19 17:52:00,90.7,70.7,29.82,South,180,6.5,26.0,52,0.00,,SKC,0.00,VWS V14.01,2013-05-19 22:52:00,
2013-05-19 17:57:00,90.1,71.3,29.82,SSE,158,3.1,12.5,54,0.00,,SKC,0.00,VWS V14.01,2013-05-19 22:57:00,
2013-05-19 18:02:00,90.0,71.6,29.82,SSE,158,1.1,4.5,55,0.00,,SKC,0.00,VWS V14.01,2013-05-19 23:02:00,
2013-05-19 18:07:00,89.8,72.0,29.82,SSE,158,1.1,4.5,56,0.00,,SKC,0.00,VWS V14.01,2013-05-19 23:07:00,
2013-05-19 18:12:00,89.6,71.3,29.79,SSE,158,1.1,4.5,55,0.00,,SKC,0.00,VWS V14.01,2013-05-19 23:12:00,
2013-05-19 18:17:00,89.6,71.3,29.79,SSE,158,4.9,19.7,55,0.00,,SKC,0.00,VWS V14.01,2013-05-19 23:17:00,
2013-05-19 18:22:00,89.4,71.7,29.79,ESE,112,3.4,13.4,56,0.00,,SKC,0.00,VWS V14.01,2013-05-19 23:22:00,
2013-05-19 18:27:00,88.9,69.6,29.82,ESE,112,3.4,13.4,53,0.00,,SKC,0.00,VWS V14.01,2013-05-19 23:27:00,
2013-05-19 18:32:00,88.2,68.9,29.82,ESE,112,3.4,13.4,53,0.00,,SKC,0.00,VWS V14.01,2013-05-19 23:32:00,
2013-05-19 18:37:00,88.0,67.0,29.82,SSE,158,2.7,10.7,50,0.00,,SKC,0.00,VWS V14.01,2013-05-19 23:37:00,
2013-05-19 18:42:00,87.8,67.4,29.82,SSE,158,2.7,10.7,51,0.00,,SKC,0.00,VWS V14.01,2013-05-19 23:42:00,
2013-05-19 18:47:00,87.4,64.8,29.82,SSE,158,2.7,10.7,47,0.00,,SKC,0.00,VWS V14.01,2013-05-19 23:47:00,
2013-05-19 18:52:00,86.7,63.5,29.82,SSE,158,2.5,9.8,46,0.00,,SKC,0.00,VWS V14.01,2013-05-19 23:52:00,
2013-05-19 18:57:00,86.2,62.4,29.82,South,180,3.1,12.5,45,0.00,,SKC,0.00,VWS V14.01,2013-05-19 23:57:00,
2013-05-19 19:02:00,85.6,61.2,29.82,South,180,2.7,10.7,44,0.00,,SKC,0.00,VWS V14.01,2013-05-20 00:02:00,
2013-05-19 19:07:00,85.3,60.9,29.82,SE,135,1.6,6.3,44,0.00,,SKC,0.00,VWS V14.01,2013-05-20 00:07:00,
2013-05-19 19:12:00,84.6,61.5,29.82,SSE,158,2.9,11.6,46,0.00,,SKC,0.00,VWS V14.01,2013-05-20 00:12:00,
2013-05-19 19:17:00,84.2,62.4,29.82,SSE,158,3.6,14.3,48,0.00,,SKC,0.00,VWS V14.01,2013-05-20 00:17:00,
2013-05-19 19:22:00,83.7,63.1,29.82,South,180,2.9,11.6,50,0.00,,SKC,0.00,VWS V14.01,2013-05-20 00:22:00,
2013-05-19 19:27:00,83.3,63.9,29.82,SSW,202,2.9,11.6,52,0.00,,SKC,0.00,VWS V14.01,2013-05-20 00:27:00,
2013-05-19 19:32:00,83.3,62.2,29.82,SSE,158,3.1,12.5,49,0.00,,SKC,0.00,VWS V14.01,2013-05-20 00:32:00,
2013-05-19 19:37:00,82.9,61.2,29.82,SSE,158,1.3,5.4,48,0.00,,SKC,0.00,VWS V14.01,2013-05-20 00:37:00,
2013-05-19 19:42:00,82.6,60.9,29.82,South,180,5.6,22.4,48,0.00,,SKC,0.00,VWS V14.01,2013-05-20 00:42:00,
2013-05-19 19:47:00,82.4,60.8,29.82,South,180,5.6,22.4,48,0.00,,SKC,0.00,VWS V14.01,2013-05-20 00:47:00,
2013-05-19 19:52:00,81.9,61.4,29.82,South,180,1.3,5.4,50,0.00,,SKC,0.00,VWS V14.01,2013-05-20 00:52:00,
2013-05-19 19:57:00,81.5,61.1,29.82,South,180,1.3,5.4,50,0.00,,SKC,0.00,VWS V14.01,2013-05-20 00:57:00,
2013-05-19 20:02:00,81.3,60.9,29.82,South,180,1.3,5.4,50,0.00,,SKC,0.00,VWS V14.01,2013-05-20 01:02:00,
2013-05-19 20:07:00,81.1,61.3,29.82,ESE,112,4.9,19.7,51,0.00,,SKC,0.00,VWS V14.01,2013-05-20 01:07:00,
2013-05-19 20:12:00,81.1,61.3,29.82,ESE,112,4.9,19.7,51,0.00,,SKC,0.00,VWS V14.01,2013-05-20 01:12:00,
2013-05-19 20:17:00,80.8,61.5,29.82,South,180,3.6,14.3,52,0.00,,SKC,0.00,VWS V14.01,2013-05-20 01:17:00,
2013-05-19 20:22:00,80.2,61.6,29.82,SSE,158,2.7,10.7,53,0.00,,SKC,0.00,VWS V14.01,2013-05-20 01:22:00,
2013-05-19 20:27:00,79.9,61.8,29.85,SSE,158,2.2,9.0,54,0.00,,SKC,0.00,VWS V14.01,2013-05-20 01:27:00,
2013-05-19 20:32:00,79.9,61.8,29.85,SSE,158,3.1,12.5,54,0.00,,SKC,0.00,VWS V14.01,2013-05-20 01:32:00,
2013-05-19 20:37:00,79.7,62.6,29.85,SE,135,2.9,11.6,56,0.00,,SKC,0.00,VWS V14.01,2013-05-20 01:37:00,
2013-05-19 20:42:00,79.9,62.8,29.85,SSE,158,3.6,14.3,56,0.00,,SKC,0.00,VWS V14.01,2013-05-20 01:42:00,
2013-05-19 20:47:00,79.7,63.6,29.85,SE,135,2.5,9.8,58,0.00,,SKC,0.00,VWS V14.01,2013-05-20 01:47:00,
2013-05-19 20:52:00,79.5,64.0,29.85,SSE,158,3.1,12.5,59,0.00,,SKC,0.00,VWS V14.01,2013-05-20 01:52:00,
2013-05-19 20:57:00,79.5,64.0,29.85,SSE,158,1.6,6.3,59,0.00,,SKC,0.00,VWS V14.01,2013-05-20 01:57:00,
2013-05-19 21:02:00,79.3,64.3,29.85,SSE,158,0.9,3.6,60,0.00,,SKC,0.00,VWS V14.01,2013-05-20 02:02:00,
2013-05-19 21:07:00,79.0,64.4,29.85,WSW,248,1.1,4.5,61,0.00,,SKC,0.00,VWS V14.01,2013-05-20 02:07:00,
2013-05-19 21:12:00,78.8,64.7,29.88,WSW,248,1.6,6.3,62,0.00,,SKC,0.00,VWS V14.01,2013-05-20 02:12:00,
2013-05-19 21:17:00,78.8,65.2,29.88,SSE,158,3.1,12.5,63,0.00,,SKC,0.00,VWS V14.01,2013-05-20 02:17:00,
2013-05-19 21:22:00,78.8,65.6,29.88,SSW,202,2.5,9.8,64,0.00,,SKC,0.00,VWS V14.01,2013-05-20 02:22:00,
2013-05-19 21:27:00,78.8,65.6,29.88,SSE,158,4.7,18.8,64,0.00,,SKC,0.00,VWS V14.01,2013-05-20 02:27:00,
2013-05-19 21:33:00,78.8,66.1,29.88,SSE,158,2.2,9.0,65,0.00,,SKC,0.00,VWS V14.01,2013-05-20 02:33:00,
2013-05-19 21:38:00,78.6,65.9,29.88,SSE,158,3.6,14.3,65,0.00,,SKC,0.00,VWS V14.01,2013-05-20 02:38:00,
2013-05-19 21:43:00,78.8,66.1,29.85,SSW,202,3.1,12.5,65,0.00,,SKC,0.00,VWS V14.01,2013-05-20 02:43:00,
2013-05-19 21:48:00,78.8,66.1,29.85,SSE,158,1.1,4.5,65,0.00,,SKC,0.00,VWS V14.01,2013-05-20 02:48:00,
2013-05-19 21:53:00,78.8,66.5,29.85,SSE,158,6.0,24.2,66,0.00,,SKC,0.00,VWS V14.01,2013-05-20 02:53:00,
2013-05-19 21:58:00,78.8,66.5,29.88,SSE,158,1.3,5.4,66,0.00,,SKC,0.00,VWS V14.01,2013-05-20 02:58:00,
2013-05-19 22:03:00,78.6,66.3,29.88,ESE,112,2.0,8.1,66,0.00,,SKC,0.00,VWS V14.01,2013-05-20 03:03:00,
2013-05-19 22:08:00,78.6,66.8,29.88,South,180,2.5,9.8,67,0.00,,SKC,0.00,VWS V14.01,2013-05-20 03:08:00,
2013-05-19 22:13:00,78.4,66.6,29.91,ESE,112,2.9,11.6,67,0.00,,SKC,0.00,VWS V14.01,2013-05-20 03:13:00,
2013-05-19 22:18:00,78.4,67.0,29.91,SSE,158,2.0,8.1,68,0.00,,SKC,0.00,VWS V14.01,2013-05-20 03:18:00,
2013-05-19 22:23:00,78.3,66.8,29.91,SSE,158,4.3,17.0,68,0.00,,SKC,0.00,VWS V14.01,2013-05-20 03:23:00,
2013-05-19 22:28:00,78.1,66.7,29.91,SE,135,1.6,6.3,68,0.00,,SKC,0.00,VWS V14.01,2013-05-20 03:28:00,
2013-05-19 22:33:00,78.3,67.3,29.91,SE,135,2.5,9.8,69,0.00,,SKC,0.00,VWS V14.01,2013-05-20 03:33:00,
2013-05-19 22:38:00,78.3,67.3,29.91,SSE,158,2.5,9.8,69,0.00,,SKC,32.86,VWS V14.01,2013-05-20 03:38:00,
2013-05-19 22:43:00,78.3,67.3,29.91,SE,135,0.0,0.0,69,0.00,,SKC,32.86,VWS V14.01,2013-05-20 03:43:00,
2013-05-19 22:48:00,78.1,67.5,29.91,SE,135,3.6,14.3,70,0.00,,SKC,32.86,VWS V14.01,2013-05-20 03:48:00,
2013-05-19 22:53:00,78.3,67.7,29.91,South,180,2.5,9.8,70,0.00,,SKC,32.86,VWS V14.01,2013-05-20 03:53:00,
2013-05-19 22:58:00,78.1,67.5,29.94,SE,135,4.0,16.1,70,0.00,,SKC,32.86,VWS V14.01,2013-05-20 03:58:00,
2013-05-19 23:01:00,78.1,67.5,29.94,SE,135,2.7,10.7,70,0.00,,SKC,32.86,VWS V14.01,2013-05-20 04:01:00,
2013-05-19 23:06:00,78.1,67.5,29.94,ESE,112,4.0,16.1,70,0.00,,SKC,32.86,VWS V14.01,2013-05-20 04:06:00,
2013-05-19 23:11:00,77.9,67.3,29.94,ESE,112,2.7,10.7,70,0.00,,SKC,32.86,VWS V14.01,2013-05-20 04:11:00,
2013-05-19 23:16:00,77.7,67.6,29.94,South,180,2.2,9.0,71,0.00,,SKC,32.86,VWS V14.01,2013-05-20 04:16:00,
2013-05-19 23:21:00,77.5,67.4,29.94,SSE,158,3.1,12.5,71,0.00,,SKC,32.86,VWS V14.01,2013-05-20 04:21:00,
2013-05-19 23:26:00,77.2,67.5,29.94,SSE,158,2.5,9.8,72,0.00,,SKC,32.86,VWS V14.01,2013-05-20 04:26:00,
2013-05-19 23:31:00,77.2,67.9,29.94,SSE,158,2.5,9.8,73,0.00,,SKC,32.86,VWS V14.01,2013-05-20 04:31:00,
2013-05-19 23:36:00,77.0,67.7,29.94,South,180,2.9,11.6,73,0.00,,SKC,32.86,VWS V14.01,2013-05-20 04:36:00,
2013-05-19 23:41:00,76.8,67.9,29.94,SSE,158,3.1,12.5,74,0.00,,SKC,32.86,VWS V14.01,2013-05-20 04:41:00,
2013-05-19 23:46:00,76.6,68.1,29.94,SSE,158,2.5,9.8,75,0.00,,SKC,32.86,VWS V14.01,2013-05-20 04:46:00,
2013-05-19 23:51:00,76.6,68.1,29.94,South,180,2.0,8.1,75,0.00,,SKC,32.86,VWS V14.01,2013-05-20 04:51:00,
2013-05-19 23:56:00,76.5,68.3,29.91,SSE,158,1.3,5.4,76,0.00,,SKC,0.00,VWS V14.01,2013-05-20 04:56:00,